Time;durP1;ratioP1;P1;durP2;ratioP2;P2;SDS_P1;SDS_P2;PMS_P1;PMS_P2;Temp;Humidity;BMP_temperature;BMP_pressure;BME280_temperature;BME280_humidity;BME280_pressure;Samples;Min_cycle;Max_cycle;Signal;HPM_P1;HPM_P2
2022/05/24 00:01:23;;;;;;;2.70;1.10;;;;;;;15.99;100.00;97916.13;5112733;27;20254;-80
2022/05/24 00:03:50;;;;;;;1.42;1.17;;;;;;;16.00;100.00;97926.03;5109973;27;20040;-81
2022/05/24 00:06:17;;;;;;;3.95;1.40;;;;;;;15.90;100.00;97911.09;5105379;28;20044;-80
2022/05/24 00:08:44;;;;;;;1.85;1.40;;;;;;;15.80;100.00;97904.63;5100748;28;20074;-80
2022/05/24 00:11:11;;;;;;;6.65;1.85;;;;;;;15.99;100.00;97927.09;5101230;28;20039;-80
2022/05/24 00:13:38;;;;;;;3.03;1.63;;;;;;;15.87;100.00;97927.22;5104615;28;20471;-80
2022/05/24 00:16:05;;;;;;;2.53;1.42;;;;;;;15.86;100.00;97925.53;5101724;28;20055;-80
2022/05/24 00:18:32;;;;;;;4.13;1.52;;;;;;;15.81;100.00;97929.03;5105238;28;20044;-80
2022/05/24 00:21:00;;;;;;;1.65;1.20;;;;;;;15.84;100.00;97934.00;5105191;27;20047;-80
2022/05/24 00:23:30;;;;;;;2.85;1.50;;;;;;;15.75;100.00;97925.34;5098555;27;20048;-79
2022/05/24 00:25:59;;;;;;;3.93;1.57;;;;;;;15.62;100.00;97914.69;5103102;28;20044;-80
2022/05/24 00:28:28;;;;;;;2.28;1.58;;;;;;;15.67;100.00;97933.97;5105184;28;20059;-80
2022/05/24 00:30:57;;;;;;;2.05;1.30;;;;;;;15.47;100.00;97908.97;5101203;28;20083;-80
2022/05/24 00:33:23;;;;;;;6.43;1.80;;;;;;;15.54;100.00;97904.97;5107055;28;20319;-79
2022/05/24 00:35:50;;;;;;;2.05;1.70;;;;;;;15.65;100.00;97914.19;5101953;28;20137;-79
2022/05/24 00:38:24;;;;;;;4.88;2.13;;;;;;;15.50;100.00;97908.47;5101834;27;20047;-78
2022/05/24 00:41:00;;;;;;;4.43;2.08;;;;;;;15.48;100.00;97924.34;5097652;28;20046;-78
2022/05/24 00:43:33;;;;;;;2.88;1.67;;;;;;;15.70;100.00;97941.69;5094936;28;20043;-78
2022/05/24 00:46:03;;;;;;;2.97;2.65;;;;;;;15.65;100.00;97929.81;5100053;28;20054;-78
2022/05/24 00:48:35;;;;;;;3.13;1.98;;;;;;;15.72;100.00;97935.97;5101157;28;20044;-78
2022/05/24 00:51:02;;;;;;;2.10;1.90;;;;;;;15.52;100.00;97923.59;5101942;28;20059;-78
2022/05/24 00:53:35;;;;;;;4.97;2.03;;;;;;;15.64;100.00;97928.16;5100387;28;20055;-78
2022/05/24 00:56:08;;;;;;;3.75;2.22;;;;;;;15.43;100.00;97911.38;5104209;28;20048;-77
2022/05/24 00:58:41;;;;;;;2.45;2.08;;;;;;;15.39;100.00;97907.47;5105875;27;20046;-78
2022/05/24 01:01:24;;;;;;;5.90;2.30;;;;;;;15.55;100.00;97924.97;5104532;27;20419;-78
2022/05/24 01:03:51;;;;;;;3.45;1.85;;;;;;;15.58;100.00;97936.28;5098191;27;20051;-78
2022/05/24 01:06:17;;;;;;;3.65;1.92;;;;;;;15.35;100.00;97892.59;5098239;28;20508;-77
2022/05/24 01:08:44;;;;;;;1.92;1.80;;;;;;;15.56;100.00;97922.00;5101023;28;20055;-77
2022/05/24 01:11:13;;;;;;;2.33;1.67;;;;;;;15.58;100.00;97921.75;5101836;28;20044;-78
2022/05/24 01:13:41;;;;;;;5.90;2.70;;;;;;;15.56;100.00;97915.69;5104653;28;20113;-77
2022/05/24 01:16:08;;;;;;;2.22;1.85;;;;;;;15.55;100.00;97920.34;5096433;28;20491;-78
2022/05/24 01:18:36;;;;;;;2.97;1.92;;;;;;;15.39;100.00;97902.00;5103732;27;20126;-78
2022/05/24 01:21:06;;;;;;;4.10;2.33;;;;;;;15.49;100.00;97925.97;5102094;28;20068;-78
2022/05/24 01:23:43;;;;;;;2.58;1.65;;;;;;;15.54;100.00;97920.59;5109444;27;20075;-77
2022/05/24 01:26:17;;;;;;;3.38;2.10;;;;;;;15.39;100.00;97904.72;5108908;27;20052;-77
2022/05/24 01:28:51;;;;;;;3.60;2.38;;;;;;;15.54;100.00;97917.88;5102899;27;20398;-79
2022/05/24 01:31:23;;;;;;;2.47;2.28;;;;;;;15.49;100.00;97904.91;5094398;27;20056;-78
2022/05/24 01:36:40;;;;;;;3.78;1.95;;;;;;;15.57;100.00;97912.72;5107343;28;20063;-78
2022/05/24 01:39:10;;;;;;;4.95;2.78;;;;;;;15.53;100.00;97911.53;5103914;27;20048;-78
2022/05/24 01:41:41;;;;;;;5.75;2.80;;;;;;;15.61;100.00;97918.53;5114712;27;20060;-78
2022/05/24 01:44:10;;;;;;;3.63;2.17;;;;;;;15.39;100.00;97871.88;5096193;28;20054;-78
2022/05/24 01:46:41;;;;;;;4.13;2.60;;;;;;;15.32;100.00;97880.22;5111749;27;20445;-78
2022/05/24 01:49:12;;;;;;;3.03;2.22;;;;;;;15.42;100.00;97901.50;5111079;27;20054;-78
2022/05/24 01:51:43;;;;;;;5.18;2.17;;;;;;;15.15;100.00;97874.72;5116243;27;20051;-78
2022/05/24 01:54:12;;;;;;;3.60;2.40;;;;;;;15.15;100.00;97873.91;5106150;27;20044;-78
2022/05/24 01:56:43;;;;;;;2.92;2.30;;;;;;;15.19;100.00;97905.16;5104162;27;20056;-78
2022/05/24 01:59:13;;;;;;;3.17;2.50;;;;;;;14.89;100.00;97872.59;5114233;27;20143;-78
2022/05/24 02:01:48;;;;;;;3.00;2.50;;;;;;;15.02;100.00;97891.47;5110973;27;20058;-78
2022/05/24 02:04:15;;;;;;;3.25;2.35;;;;;;;15.09;100.00;97892.16;5106687;28;20044;-78
2022/05/24 02:06:42;;;;;;;3.53;2.70;;;;;;;14.91;100.00;97871.28;5108896;27;20053;-79
2022/05/24 02:09:09;;;;;;;6.63;2.70;;;;;;;15.01;100.00;97892.56;5114572;27;20077;-78
2022/05/24 02:11:36;;;;;;;3.88;2.35;;;;;;;14.82;100.00;97879.03;5106601;27;20048;-78
2022/05/24 02:14:10;;;;;;;3.05;2.75;;;;;;;14.95;100.00;97899.81;5107411;28;20044;-78
2022/05/24 02:16:44;;;;;;;3.35;2.42;;;;;;;14.76;100.00;97874.56;5105994;28;20035;-78
2022/05/24 02:19:13;;;;;;;2.63;2.40;;;;;;;14.57;100.00;97875.78;5114938;27;20059;-78
2022/05/24 02:21:44;;;;;;;3.15;2.67;;;;;;;14.79;100.00;97906.06;5115437;27;20043;-78
2022/05/24 02:24:19;;;;;;;6.93;2.90;;;;;;;14.72;100.00;97886.22;5108986;28;20055;-78
2022/05/24 02:26:46;;;;;;;3.30;2.55;;;;;;;14.59;100.00;97884.56;5107290;28;20047;-79
2022/05/24 02:29:13;;;;;;;3.70;2.55;;;;;;;14.58;100.00;97885.66;5114087;27;20059;-78
2022/05/24 02:31:42;;;;;;;2.65;2.45;;;;;;;14.40;100.00;97900.31;5107205;27;20061;-78
2022/05/24 02:34:08;;;;;;;4.28;2.45;;;;;;;14.32;100.00;97875.00;5111558;27;20052;-78
2022/05/24 02:36:35;;;;;;;4.45;2.40;;;;;;;14.39;100.00;97884.97;5103062;27;20055;-78
2022/05/24 02:39:02;;;;;;;2.75;2.45;;;;;;;14.21;100.00;97867.66;5109950;27;20096;-78
2022/05/24 02:41:31;;;;;;;3.08;2.63;;;;;;;14.10;100.00;97879.44;5113375;27;20051;-78
2022/05/24 02:44:00;;;;;;;5.72;2.65;;;;;;;14.26;100.00;97889.63;5108629;27;20055;-78
2022/05/24 02:46:27;;;;;;;4.22;2.85;;;;;;;14.11;100.00;97871.00;5112512;27;20397;-78
2022/05/24 02:48:56;;;;;;;3.97;2.70;;;;;;;14.19;100.00;97874.44;5110925;27;20062;-78
2022/05/24 02:51:23;;;;;;;5.82;2.92;;;;;;;14.26;100.00;97881.44;5103510;28;20046;-78
2022/05/24 02:53:50;;;;;;;5.45;2.75;;;;;;;14.09;100.00;97854.03;5107822;28;20053;-78
2022/05/24 02:56:16;;;;;;;4.60;2.83;;;;;;;14.17;100.00;97877.41;5102523;28;20050;-78
2022/05/24 02:58:43;;;;;;;2.72;2.42;;;;;;;14.07;100.00;97877.19;5127487;28;20055;-78
2022/05/24 03:01:15;;;;;;;3.13;2.63;;;;;;;14.02;100.00;97874.34;5099486;28;20106;-78
2022/05/24 03:03:42;;;;;;;4.38;2.72;;;;;;;13.89;100.00;97853.56;5111138;28;20415;-78
2022/05/24 03:06:10;;;;;;;3.28;2.65;;;;;;;13.95;100.00;97860.78;5105073;28;20051;-78
2022/05/24 03:11:21;;;;;;;5.35;3.47;;;;;;;14.01;100.00;97856.28;5104074;28;20047;-78
2022/05/24 03:16:32;;;;;;;3.30;3.00;;;;;;;13.97;100.00;97839.50;5108336;27;20371;-78
2022/05/24 03:19:01;;;;;;;2.95;2.63;;;;;;;14.07;100.00;97838.91;5109018;27;20056;-78
2022/05/24 03:21:29;;;;;;;6.20;3.00;;;;;;;14.16;100.00;97873.00;5123942;27;20063;-79
2022/05/24 03:23:56;;;;;;;3.50;3.20;;;;;;;14.09;100.00;97867.69;5114885;28;20554;-78
2022/05/24 03:26:22;;;;;;;3.15;2.85;;;;;;;14.04;100.00;97867.53;5109535;28;20039;-78
2022/05/24 03:28:49;;;;;;;5.05;2.75;;;;;;;14.07;100.00;97866.25;5111438;27;20051;-78
2022/05/24 03:31:16;;;;;;;5.25;3.08;;;;;;;14.25;100.00;97887.13;5115604;27;20498;-78
2022/05/24 03:33:43;;;;;;;3.45;3.05;;;;;;;14.13;100.00;97881.69;5110112;27;20055;-78
2022/05/24 04:16:32;;;;;;;4.15;3.15;;;;;;;14.39;100.00;97907.69;5113101;28;20046;-77
2022/05/24 04:18:58;;;;;;;7.88;3.28;;;;;;;14.34;100.00;97893.91;5099891;28;20055;-77
2022/05/24 04:21:25;;;;;;;7.53;3.65;;;;;;;14.42;100.00;97914.56;5093496;28;20048;-77
2022/05/24 04:23:51;;;;;;;5.53;3.88;;;;;;;14.35;100.00;97906.50;5092788;28;20063;-77
2022/05/24 04:26:18;;;;;;;7.07;3.53;;;;;;;14.39;100.00;97912.31;5105255;28;20055;-77
2022/05/24 04:28:44;;;;;;;10.18;3.72;;;;;;;14.28;100.00;97886.66;5112807;28;20082;-77
2022/05/24 04:31:11;;;;;;;7.80;3.28;;;;;;;14.38;100.00;97884.16;5112326;28;20048;-77
2022/05/24 04:33:39;;;;;;;7.40;3.78;;;;;;;14.34;100.00;97883.78;5112839;28;20054;-77
2022/05/24 04:36:06;;;;;;;4.63;3.60;;;;;;;14.49;100.00;97907.06;5113867;28;20044;-77
2022/05/24 04:38:32;;;;;;;4.57;3.67;;;;;;;14.51;100.00;97903.03;5113564;28;20130;-77
2022/05/24 04:43:42;;;;;;;5.22;3.40;;;;;;;14.62;100.00;97911.47;5115931;27;20081;-77
2022/05/24 04:46:09;;;;;;;8.02;4.13;;;;;;;14.59;100.00;97917.38;5109549;28;20055;-77
2022/05/24 04:48:35;;;;;;;4.18;3.75;;;;;;;14.83;100.00;97923.66;5113364;28;20055;-77
2022/05/24 04:51:03;;;;;;;5.40;3.85;;;;;;;14.94;100.00;97930.16;5113875;28;20043;-77
2022/05/24 04:53:30;;;;;;;6.05;3.65;;;;;;;14.81;100.00;97918.44;5112436;28;20058;-77
2022/05/24 04:55:57;;;;;;;5.25;3.53;;;;;;;15.01;100.00;97950.03;5113227;28;20553;-77
2022/05/24 04:58:24;;;;;;;7.25;4.00;;;;;;;14.67;100.00;97926.06;5105389;27;20051;-78
2022/05/24 05:00:50;;;;;;;8.88;4.57;;;;;;;14.73;100.00;97950.81;5106001;28;20070;-77
2022/05/24 05:03:19;;;;;;;4.90;3.53;;;;;;;14.55;100.00;97927.16;5112545;27;20051;-77
2022/05/24 05:05:46;;;;;;;4.97;3.78;;;;;;;14.69;100.00;97948.56;5112894;28;20044;-77
2022/05/24 05:08:15;;;;;;;4.20;3.80;;;;;;;14.61;100.00;97932.50;5113106;28;20051;-78
2022/05/24 05:10:41;;;;;;;4.35;3.30;;;;;;;14.73;100.00;97954.38;5113219;28;20505;-77
2022/05/24 05:13:09;;;;;;;6.25;3.67;;;;;;;14.51;100.00;97932.25;5112362;28;20245;-77
2022/05/24 05:15:37;;;;;;;3.58;3.08;;;;;;;14.48;100.00;97943.69;5095030;28;20051;-78
2022/05/24 05:18:04;;;;;;;8.38;4.70;;;;;;;14.58;100.00;97965.78;5101765;28;20112;-78
2022/05/24 05:20:31;;;;;;;3.45;3.15;;;;;;;14.65;100.00;97958.31;5107572;28;20047;-78
2022/05/24 05:22:58;;;;;;;3.47;3.17;;;;;;;14.81;100.00;97955.91;5111835;28;20074;-77
2022/05/24 05:25:26;;;;;;;4.38;3.17;;;;;;;15.02;100.00;97958.00;5112871;28;20058;-77
2022/05/24 05:27:52;;;;;;;4.47;3.00;;;;;;;15.25;100.00;97964.44;5110527;28;20055;-77
2022/05/24 05:33:03;;;;;;;4.15;2.72;;;;;;;15.32;100.00;97961.56;5112003;28;20112;-78
2022/05/24 05:35:30;;;;;;;4.90;3.33;;;;;;;15.40;100.00;97945.56;5111268;27;20547;-78
2022/05/24 05:37:56;;;;;;;5.28;3.22;;;;;;;15.30;100.00;97952.75;5124490;27;20055;-78
2022/05/24 05:40:23;;;;;;;6.72;3.00;;;;;;;15.52;100.00;97986.59;5131901;27;20058;-78
2022/05/24 05:42:51;;;;;;;4.18;2.80;;;;;;;15.50;100.00;97977.75;5132184;27;20050;-78
2022/05/24 05:45:17;;;;;;;4.15;3.33;;;;;;;15.62;100.00;97979.63;5092917;28;20470;-78
2022/05/24 05:47:44;;;;;;;3.55;3.20;;;;;;;15.57;100.00;97980.38;5092047;28;20415;-78
2022/05/24 05:50:10;;;;;;;5.07;3.80;;;;;;;15.65;100.00;97973.66;5092150;28;20554;-78
2022/05/24 05:52:37;;;;;;;3.13;2.60;;;;;;;15.81;100.00;98000.28;5096627;28;20428;-78
2022/05/24 05:55:04;;;;;;;7.18;2.53;;;;;;;15.79;100.00;97971.44;5122729;27;20073;-78
2022/05/24 05:57:30;;;;;;;3.83;2.58;;;;;;;15.81;100.00;97994.78;5127404;27;20047;-78
2022/05/24 05:59:58;;;;;;;5.57;3.00;;;;;;;15.67;100.00;97999.72;5111861;28;20063;-78
2022/05/24 06:02:25;;;;;;;3.45;2.85;;;;;;;15.79;100.00;98007.88;5111335;28;20051;-78
2022/05/24 06:04:51;;;;;;;4.38;2.42;;;;;;;15.80;100.00;98006.00;5111962;28;20486;-78
2022/05/24 06:07:17;;;;;;;4.53;3.15;;;;;;;15.84;100.00;98007.19;5112132;28;20078;-78
2022/05/24 07:53:57;;;;;;;;;;;;;;;13.70;100.00;98224.25;5098099;27;1952241;-76
2022/05/24 07:56:23;;;;;;;0.75;0.70;;;;;;;13.80;100.00;98225.41;5169184;27;20005;-76
2022/05/24 07:58:50;;;;;;;1.27;0.60;;;;;;;13.96;100.00;98218.47;5170138;27;20039;-76
2022/05/24 08:01:17;;;;;;;0.40;0.40;;;;;;;14.13;100.00;98221.41;5168386;27;20490;-76
2022/05/24 08:03:45;;;;;;;1.13;0.50;;;;;;;14.10;100.00;98234.69;5168351;27;20052;-76
2022/05/24 08:06:12;;;;;;;2.95;0.73;;;;;;;14.06;100.00;98239.81;5156004;27;20072;-76
2022/05/24 08:08:39;;;;;;;0.68;0.50;;;;;;;13.96;100.00;98226.69;5169516;27;20061;-77
2022/05/24 08:11:07;;;;;;;3.03;1.25;;;;;;;14.04;100.00;98244.66;5169897;27;20050;-77
2022/05/24 08:13:35;;;;;;;4.15;0.50;;;;;;;14.12;100.00;98246.22;5169314;27;20051;-76
2022/05/24 08:16:02;;;;;;;0.40;0.40;;;;;;;14.13;100.00;98242.44;5169309;27;20353;-77
2022/05/24 08:18:28;;;;;;;2.17;0.55;;;;;;;14.05;100.00;98249.06;5170000;27;20050;-79
2022/05/24 08:20:56;;;;;;;2.92;0.80;;;;;;;14.03;100.00;98248.47;5170362;27;20430;-77
2022/05/24 08:23:24;;;;;;;0.52;0.40;;;;;;;14.16;100.00;98253.72;5158971;27;20412;-77
2022/05/24 08:25:51;;;;;;;0.85;0.50;;;;;;;14.01;100.00;98250.56;5157769;27;20065;-78
2022/05/24 08:28:19;;;;;;;1.83;0.60;;;;;;;13.89;100.00;98245.03;5169759;27;20062;-78
2022/05/24 08:30:47;;;;;;;1.02;0.32;;;;;;;13.93;100.00;98246.25;5169799;27;20048;-78
2022/05/24 08:33:16;;;;;;;2.90;0.40;;;;;;;13.99;100.00;98255.44;5169103;27;20438;-78
2022/05/24 08:35:44;;;;;;;0.40;0.40;;;;;;;14.13;100.00;98242.44;5169285;27;20035;-78
2022/05/24 08:38:12;;;;;;;0.63;0.63;;;;;;;14.34;100.00;98252.88;5165396;27;20053;-78
2022/05/24 08:40:40;;;;;;;0.68;0.50;;;;;;;14.84;100.00;98256.38;5148287;27;20043;-80
2022/05/24 08:43:21;;;;;;;2.88;0.55;;;;;;;14.81;100.00;98254.13;5147998;27;20421;-79
2022/05/24 08:48:51;;;;;;;2.13;0.75;;;;;;;15.01;100.00;98271.06;5139258;27;20047;-79
2022/05/24 08:51:23;;;;;;;1.98;0.47;;;;;;;14.99;100.00;98269.63;5149025;27;20080;-79
2022/05/24 08:53:52;;;;;;;1.20;0.70;;;;;;;15.26;100.00;98260.97;5148146;27;20528;-79
2022/05/24 08:56:22;;;;;;;3.50;0.70;;;;;;;15.50;100.00;98278.22;5156305;27;20047;-79
2022/05/24 08:58:54;;;;;;;2.53;0.90;;;;;;;15.70;100.00;98286.91;5168825;27;20413;-79
2022/05/24 09:01:25;;;;;;;0.65;0.47;;;;;;;15.61;100.00;98288.38;5157039;27;20074;-80
2022/05/24 09:03:52;;;;;;;1.63;0.40;;;;;;;15.39;98.20;98275.25;5154437;27;20099;-80
2022/05/24 09:06:34;;;;;;;0.80;0.43;;;;;;;15.53;98.69;98270.34;5150968;27;20109;-79
2022/05/24 09:09:12;;;;;;;0.73;0.60;;;;;;;15.45;94.26;98281.69;5154511;27;20046;-79
2022/05/24 09:11:51;;;;;;;6.10;0.65;;;;;;;15.66;93.30;98285.72;5134433;27;20039;-79
2022/05/24 09:14:25;;;;;;;2.90;1.17;;;;;;;15.66;90.46;98285.72;5133673;27;20050;-79
2022/05/24 09:17:02;;;;;;;1.25;0.57;;;;;;;16.01;90.08;98276.63;5146622;27;20035;-78
2022/05/24 09:19:34;;;;;;;0.75;0.40;;;;;;;16.30;90.35;98284.06;5155285;27;20051;-79
2022/05/24 09:22:01;;;;;;;0.43;0.43;;;;;;;16.15;86.91;98277.19;5154828;27;20050;-79
2022/05/24 09:24:39;;;;;;;0.30;0.30;;;;;;;16.56;91.15;98290.88;5153662;27;20133;-79
2022/05/24 09:27:09;;;;;;;0.40;0.40;;;;;;;16.51;84.90;98291.63;5135550;27;20045;-79
2022/05/24 09:29:37;;;;;;;0.47;0.20;;;;;;;16.74;87.96;98287.94;5154688;27;20461;-80
2022/05/24 09:32:09;;;;;;;1.13;0.32;;;;;;;16.59;83.88;98298.63;5151353;27;20410;-79
2022/05/24 09:34:37;;;;;;;0.65;0.55;;;;;;;16.57;84.97;98293.38;5154668;27;20090;-79
2022/05/24 09:37:07;;;;;;;0.60;0.32;;;;;;;16.94;87.10;98283.94;5148885;27;20103;-79
2022/05/24 09:39:36;;;;;;;0.40;0.40;;;;;;;17.06;86.61;98294.84;5148661;27;20046;-79
2022/05/24 09:42:05;;;;;;;6.10;0.60;;;;;;;16.87;83.66;98286.81;5154125;27;20448;-79
2022/05/24 09:44:45;;;;;;;1.23;0.43;;;;;;;16.85;78.92;98299.13;5154470;27;20326;-78
2022/05/24 09:47:22;;;;;;;1.42;0.60;;;;;;;16.71;80.06;98304.06;5149477;27;20177;-78
2022/05/24 09:49:49;;;;;;;0.85;0.38;;;;;;;16.75;79.58;98297.81;5141587;27;20050;-79
2022/05/24 09:52:16;;;;;;;2.22;0.50;;;;;;;17.13;84.21;98304.59;5132775;27;20054;-78
2022/05/24 09:54:52;;;;;;;0.45;0.30;;;;;;;17.46;74.89;98294.69;5147825;27;20051;-81
2022/05/24 09:57:23;;;;;;;1.08;0.40;;;;;;;17.47;77.37;98318.31;5153962;27;20430;-80
2022/05/24 10:00:00;;;;;;;2.35;0.70;;;;;;;17.38;78.21;98310.75;5154131;27;20516;-78
2022/05/24 10:02:29;;;;;;;1.77;0.40;;;;;;;17.75;76.38;98327.53;5146887;27;20043;-78
2022/05/24 10:04:56;;;;;;;1.10;0.43;;;;;;;17.85;70.24;98330.44;5140630;27;20043;-78
2022/05/24 10:07:26;;;;;;;1.25;0.40;;;;;;;17.62;73.17;98306.72;5136345;27;20042;-78
2022/05/24 10:09:56;;;;;;;;;;;;;;;17.88;74.83;98323.59;5152077;27;20066;-79
2022/05/24 10:12:53;;;;;;;1.35;0.30;;;;;;;18.14;70.24;98329.47;5147154;27;20847;-78
2022/05/24 10:15:30;;;;;;;2.08;0.40;;;;;;;18.34;71.25;98320.66;5153320;27;20050;-79
2022/05/24 10:18:23;;;;;;;0.43;0.32;;;;;;;18.46;72.46;98304.03;5152838;27;20500;-79
2022/05/24 10:20:58;;;;;;;0.20;0.20;;;;;;;18.31;65.19;98323.94;5142656;27;20672;-80
2022/05/24 10:23:43;;;;;;;0.38;0.30;;;;;;;18.89;62.69;98324.31;5132131;27;20047;-79
2022/05/24 10:26:22;;;;;;;1.38;0.32;;;;;;;18.64;61.74;98313.84;5133007;27;20626;-78
2022/05/24 10:28:59;;;;;;;1.75;0.60;;;;;;;18.92;61.80;98310.88;5147795;27;20042;-79
2022/05/24 10:31:36;;;;;;;1.65;0.70;;;;;;;19.45;62.62;98319.34;5151000;27;20062;-77
2022/05/24 10:40:04;;;;;;;0.60;0.60;;;;;;;19.00;63.68;98317.84;5132512;27;20050;-77
2022/05/24 10:42:47;;;;;;;0.30;0.30;;;;;;;18.73;59.05;98315.06;5131970;27;20114;-77
2022/05/24 10:45:17;;;;;;;0.80;0.60;;;;;;;18.73;61.19;98324.16;5132512;27;20494;-79
2022/05/24 10:47:49;;;;;;;1.70;0.90;;;;;;;18.24;61.02;98296.59;5147184;27;20059;-80
2022/05/24 10:50:23;;;;;;;2.97;1.23;;;;;;;18.99;60.13;98316.19;5152481;27;20050;-80
2022/05/24 10:53:03;;;;;;;1.25;0.55;;;;;;;19.30;58.49;98293.56;5133865;27;20126;-79
2022/05/24 10:55:33;;;;;;;0.70;0.40;;;;;;;19.70;58.10;98304.06;5132079;27;20063;-79
2022/05/24 10:58:03;;;;;;;0.95;0.60;;;;;;;19.73;57.22;98306.28;5141129;27;20039;-79
2022/05/24 11:00:35;;;;;;;1.60;0.90;;;;;;;19.82;54.94;98305.84;5132129;27;20055;-78
2022/05/24 11:03:09;;;;;;;0.30;0.30;;;;;;;19.64;56.27;98308.72;5131419;27;20125;-77
2022/05/24 11:05:39;;;;;;;0.98;0.50;;;;;;;19.57;55.34;98307.28;5131451;27;20043;-77
2022/05/24 11:08:13;;;;;;;;;;;;;;;19.66;51.97;98310.38;5132454;27;20513;-78
2022/05/24 11:10:43;;;;;;;2.03;0.38;;;;;;;19.36;55.47;98298.03;5132171;27;19919;-77
2022/05/24 11:13:12;;;;;;;0.73;0.55;;;;;;;19.29;59.85;98295.50;5134079;27;20066;-77
2022/05/24 11:15:44;;;;;;;1.75;0.50;;;;;;;18.99;56.63;98307.91;5137626;27;20050;-77
2022/05/24 11:18:15;;;;;;;1.02;0.52;;;;;;;18.89;60.78;98292.13;5131693;27;20158;-77
2022/05/24 11:20:49;;;;;;;0.43;0.43;;;;;;;18.79;59.14;98316.78;5131912;27;20047;-77
2022/05/24 11:23:21;;;;;;;0.57;0.47;;;;;;;18.45;58.91;98308.69;5130963;27;20152;-77
2022/05/24 11:25:52;;;;;;;0.98;0.57;;;;;;;18.54;59.36;98314.56;5132938;27;20055;-77
2022/05/24 11:28:24;;;;;;;1.08;0.60;;;;;;;18.83;56.24;98309.63;5148811;27;20046;-77
2022/05/24 11:30:51;;;;;;;1.98;0.50;;;;;;;19.10;58.60;98312.44;5152204;27;20043;-77
2022/05/24 11:33:33;;;;;;;1.63;0.50;;;;;;;19.37;56.82;98289.50;5151629;27;20055;-77
2022/05/24 11:36:36;;;;;;;1.00;0.43;;;;;;;19.92;55.55;98292.94;5151962;27;20080;-77
2022/05/24 11:39:15;;;;;;;0.22;0.22;;;;;;;19.83;53.89;98277.16;5152305;27;20051;-77
2022/05/24 11:41:42;;;;;;;0.80;0.50;;;;;;;19.84;51.26;98285.16;5152387;27;20111;-77
2022/05/24 11:44:29;;;;;;;1.60;0.30;;;;;;;20.21;51.76;98288.94;5147666;27;20602;-77
2022/05/24 11:46:56;;;;;;;3.30;0.52;;;;;;;20.61;50.61;98282.72;5152214;27;20054;-78
2022/05/24 11:50:05;;;;;;;3.08;1.33;;;;;;;20.63;48.01;98297.09;5152416;27;20138;-77
2022/05/24 11:53:04;;;;;;;2.17;0.80;;;;;;;20.13;49.31;98293.03;5150781;27;20450;-77
2022/05/24 11:55:47;;;;;;;1.70;0.32;;;;;;;20.25;48.46;98271.56;5136154;27;20417;-78
2022/05/24 11:58:43;;;;;;;1.85;0.52;;;;;;;20.65;48.54;98285.75;5152068;27;20058;-78
2022/05/24 12:01:30;;;;;;;0.65;0.40;;;;;;;20.65;46.73;98285.75;5151276;27;20508;-77
2022/05/24 12:10:47;;;;;;;0.30;0.30;;;;;;;20.99;44.85;98269.56;5151953;27;20084;-77
2022/05/24 12:13:26;;;;;;;0.40;0.40;;;;;;;20.97;45.50;98273.69;5145670;27;20079;-79
2022/05/24 12:15:55;;;;;;;0.28;0.28;;;;;;;21.50;46.41;98299.16;5151984;27;20074;-79
2022/05/24 12:18:35;;;;;;;0.33;0.33;;;;;;;21.83;47.11;98283.09;5151758;27;20061;-78
2022/05/24 12:21:02;;;;;;;;;;;;;;;21.78;46.72;98290.56;5152385;27;20059;-78
2022/05/24 12:23:41;;;;;;;1.48;0.50;;;;;;;20.97;43.59;98299.41;5150749;27;19923;-79
2022/05/24 12:26:12;;;;;;;2.72;0.47;;;;;;;21.34;44.74;98303.03;5151813;27;20497;-79
2022/05/24 12:28:49;;;;;;;5.43;0.40;;;;;;;20.95;46.94;98295.25;5152756;27;20043;-77
2022/05/24 12:31:28;;;;;;;1.85;0.38;;;;;;;21.39;45.85;98300.25;5150285;27;20043;-78
2022/05/24 12:33:57;;;;;;;0.50;0.32;;;;;;;21.42;44.62;98277.56;5150540;27;20043;-77
2022/05/24 12:36:29;;;;;;;0.32;0.20;;;;;;;21.86;44.42;98312.09;5154615;27;20050;-77
2022/05/24 12:39:03;;;;;;;0.35;0.35;;;;;;;22.00;45.11;98306.84;5155836;27;20099;-77
2022/05/24 12:41:35;;;;;;;0.40;0.40;;;;;;;21.96;43.07;98302.97;5155585;27;20133;-79
2022/05/24 12:44:05;;;;;;;0.60;0.22;;;;;;;21.16;42.72;98305.22;5154959;27;20106;-79
2022/05/24 12:46:34;;;;;;;0.30;0.30;;;;;;;21.36;42.63;98293.34;5155427;27;20082;-78
2022/05/24 12:49:07;;;;;;;1.57;0.30;;;;;;;21.65;44.07;98289.19;5152833;27;20038;-77
2022/05/24 12:51:35;;;;;;;2.42;0.40;;;;;;;22.07;48.28;98304.59;5149115;27;20047;-77
2022/05/24 12:54:19;;;;;;;2.60;0.40;;;;;;;21.83;44.24;98305.22;5153731;27;20054;-78
2022/05/24 12:57:03;;;;;;;0.65;0.38;;;;;;;21.45;43.62;98288.06;5155401;27;20125;-78
2022/05/24 12:59:34;;;;;;;2.30;0.82;;;;;;;21.46;45.90;98314.63;5155351;27;20050;-78
2022/05/24 13:02:30;;;;;;;0.95;0.40;;;;;;;20.81;47.26;98311.53;5154754;27;20057;-78
2022/05/24 13:05:02;;;;;;;0.40;0.30;;;;;;;20.64;47.10;98304.28;5147827;27;20035;-79
2022/05/24 13:07:41;;;;;;;0.38;0.38;;;;;;;20.47;48.27;98290.72;5155166;27;20051;-77
2022/05/24 13:10:16;;;;;;;1.15;0.60;;;;;;;20.45;47.99;98316.91;5154988;27;20039;-77
2022/05/24 13:12:44;;;;;;;0.88;0.38;;;;;;;20.10;49.27;98291.66;5153936;27;20049;-78
2022/05/24 13:15:16;;;;;;;1.15;0.55;;;;;;;20.21;46.85;98291.69;5150439;27;20047;-77
2022/05/24 13:17:45;;;;;;;1.13;0.73;;;;;;;20.55;47.01;98314.19;5154320;27;20043;-77
2022/05/24 13:20:24;;;;;;;;;;;;;;;20.76;46.16;98308.75;5154964;27;20512;-78
2022/05/24 13:22:54;;;;;;;4.65;0.60;;;;;;;20.83;47.78;98301.03;5152121;27;20334;-78
2022/05/24 13:25:23;;;;;;;5.78;0.40;;;;;;;20.98;47.46;98316.81;5154917;27;20047;-78
2022/05/24 13:27:56;;;;;;;7.27;0.67;;;;;;;20.47;46.28;98322.97;5154834;27;20047;-78
2022/05/24 13:33:35;;;;;;;3.42;1.15;;;;;;;21.32;45.99;98299.72;5153520;27;20453;-78
2022/05/24 13:36:16;;;;;;;2.42;0.55;;;;;;;21.42;46.13;98305.22;5154406;27;20068;-78
2022/05/24 13:38:45;;;;;;;4.55;0.50;;;;;;;21.92;44.92;98311.84;5154566;27;20058;-78
2022/05/24 13:41:13;;;;;;;1.17;0.22;;;;;;;22.02;42.85;98313.72;5154214;27;20047;-78
2022/05/24 13:43:44;;;;;;;3.42;0.50;;;;;;;22.43;42.94;98315.56;5153226;27;20126;-77
2022/05/24 13:46:20;;;;;;;2.60;0.30;;;;;;;22.26;41.08;98297.31;5149870;27;20125;-78
2022/05/24 13:48:54;;;;;;;4.03;0.30;;;;;;;21.58;41.43;98288.66;5142125;27;20053;-78
2022/05/24 13:51:27;;;;;;;2.30;0.57;;;;;;;21.16;44.25;98294.16;5133405;27;20046;-79
2022/05/24 13:53:55;;;;;;;0.63;0.30;;;;;;;21.33;44.34;98304.13;5145629;27;20199;-78
2022/05/24 13:56:24;;;;;;;4.15;0.65;;;;;;;21.91;43.84;98320.41;5150099;27;20061;-78
2022/05/24 13:59:05;;;;;;;2.78;0.30;;;;;;;22.34;44.42;98295.13;5136789;27;20590;-78
2022/05/24 14:01:35;;;;;;;6.70;0.47;;;;;;;22.50;42.14;98310.56;5133399;27;20050;-79
2022/05/24 14:04:03;;;;;;;;;;;;;;;22.48;43.50;98326.63;5132299;27;20062;-79
2022/05/24 14:06:30;;;;;;;0.43;0.40;;;;;;;22.71;41.29;98321.53;5143484;27;19922;-79
2022/05/24 14:08:59;;;;;;;1.00;0.47;;;;;;;22.52;42.90;98285.34;5153856;27;20082;-79
2022/05/24 14:11:28;;;;;;;0.43;0.30;;;;;;;22.52;43.30;98280.66;5147114;27;20043;-79
2022/05/24 14:13:57;;;;;;;0.55;0.30;;;;;;;22.37;42.53;98313.94;5140656;27;20397;-79
2022/05/24 14:16:25;;;;;;;1.38;0.40;;;;;;;21.61;43.26;98302.75;5139761;27;20039;-79
2022/05/24 14:18:53;;;;;;;1.05;0.40;;;;;;;21.95;42.20;98302.16;5132582;27;20410;-78
2022/05/24 14:21:23;;;;;;;0.77;0.43;;;;;;;22.16;41.71;98302.91;5132829;27;20112;-78
2022/05/24 14:23:49;;;;;;;;;;;;;;;22.51;42.15;98312.22;5132736;27;20442;-78
2022/05/24 14:26:16;;;;;;;0.73;0.43;;;;;;;22.43;41.43;98304.47;5139432;27;20362;-79
2022/05/24 14:28:43;;;;;;;3.40;1.20;;;;;;;22.54;42.40;98278.41;5152709;27;20057;-78
2022/05/24 14:31:13;;;;;;;0.63;0.30;;;;;;;22.53;41.17;98318.28;5153273;27;20478;-79
2022/05/24 14:33:40;;;;;;;0.77;0.43;;;;;;;22.74;40.62;98274.69;5151761;27;20046;-78
2022/05/24 14:36:07;;;;;;;1.75;0.45;;;;;;;22.57;40.79;98282.56;5141694;27;20493;-79
2022/05/24 14:38:33;;;;;;;0.70;0.38;;;;;;;22.04;42.22;98283.00;5132734;27;20073;-78
2022/05/24 14:41:16;;;;;;;2.10;0.50;;;;;;;22.09;41.61;98313.44;5132573;27;20478;-78
2022/05/24 14:43:45;;;;;;;1.90;0.40;;;;;;;22.56;39.92;98314.13;5131874;27;20367;-78
2022/05/24 14:46:13;;;;;;;2.53;0.60;;;;;;;22.82;40.43;98303.72;5137872;27;20119;-78